.
WxDataArchive / Data Records for 2010-07-18
2010-07-17 July 2010 2010-07-19

Data Records for Sunday, 18 July 2010

Time	Temp	Chill	HIndex	Humid	Dewpt	 Wind 	HiWind	WindDir	Rain 	Barom 
-----	----	-----	------	-----	-----	------	------	-------	-----	----- 
00:00	74.4	74.4	74.4	89	70.9	0	0	---	0.00	29.922 
00:05	74.2	74.2	74.2	89	70.7	0	0	---	0.00	29.922 
00:10	74.2	74.2	74.2	89	70.7	0	0	---	0.00	29.922 
00:15	74.0	74.0	74.0	89	70.5	0	0	---	0.00	29.919 
00:20	74.0	74.0	74.0	90	70.9	0	0	---	0.00	29.919 
00:25	74.0	74.0	74.0	90	70.9	0	0	---	0.00	29.919 
00:30	74.0	74.0	74.0	90	70.9	0	0	---	0.00	29.920 
00:35	74.0	74.0	74.0	90	70.9	0	0	---	0.00	29.920 
00:40	74.0	74.0	74.0	90	70.9	0	0	---	0.00	29.920 
00:45	74.0	74.0	74.0	89	70.5	0	0	---	0.00	29.919 
00:50	74.2	74.2	74.2	88	70.4	0	0	---	0.00	29.919 
00:55	74.4	74.4	74.4	88	70.6	0	0	---	0.00	29.919 
01:00	74.4	74.4	74.4	87	70.3	0	0	---	0.00	29.921 
01:05	74.2	74.2	74.2	87	70.1	0	0	---	0.00	29.921 
01:10	74.0	74.0	74.0	87	69.9	0	0	---	0.00	29.921 
01:15	74.0	74.0	74.0	87	69.9	0	0	---	0.00	29.923 
01:20	73.9	73.9	73.9	86	69.4	0	0	---	0.00	29.923 
01:25	74.0	74.0	74.0	86	69.5	0	1	270	0.00	29.923 
01:30	74.0	74.0	74.0	85	69.2	0	1	270	0.00	29.923 
01:35	74.2	74.2	74.2	84	69.0	0	1	270	0.00	29.923 
01:40	74.0	74.0	74.0	84	68.8	0	1	270	0.00	29.923 
01:45	74.0	74.0	74.0	83	68.5	0	1	270	0.00	29.936 
01:50	74.0	74.0	74.0	82	68.1	0	1	270	0.00	29.936 
01:55	74.2	74.2	74.2	81	68.0	0	1	270	0.00	29.936 
02:00	74.0	74.0	74.0	80	67.4	0	1	270	0.00	29.937 
02:05	73.9	73.9	73.9	78	66.6	0	1	270	0.00	29.937 
02:10	73.9	73.9	73.9	79	67.0	0	1	270	0.00	29.937 
02:15	73.7	73.7	73.7	79	66.8	0	2	270	0.00	29.944 
02:20	73.5	73.5	73.5	79	66.6	0	2	270	0.00	29.944 
02:25	73.3	73.3	73.3	79	66.4	0	1	270	0.00	29.944 
02:30	73.2	73.2	73.2	79	66.3	0	2	270	0.00	29.941 
02:35	73.2	73.2	73.2	79	66.3	0	1	270	0.00	29.941 
02:40	73.0	73.0	73.0	79	66.1	0	1	270	0.00	29.941 
02:45	72.8	72.8	72.8	79	65.9	0	1	270	0.00	29.938 
02:50	72.8	72.8	72.8	80	66.3	0	1	270	0.00	29.938 
02:55	72.7	72.7	72.7	80	66.2	0	0	---	0.00	29.938 
03:00	72.5	72.5	72.5	80	66.0	0	1	270	0.00	29.927 
03:05	72.3	72.3	72.3	80	65.8	0	2	270	0.00	29.927 
03:10	72.1	72.1	72.1	80	65.6	0	1	270	0.00	29.927 
03:15	72.0	72.0	72.0	80	65.5	0	0	---	0.00	29.923 
03:20	71.8	71.8	71.8	80	65.3	0	1	270	0.00	29.923 
03:25	71.8	71.8	71.8	80	65.3	0	1	270	0.00	29.923 
03:30	71.6	71.6	71.6	80	65.1	0	1	270	0.00	29.923 
03:35	71.5	71.5	71.5	80	65.0	0	1	270	0.00	29.923 
03:40	71.5	71.5	71.5	81	65.4	0	1	270	0.00	29.923 
03:45	71.5	71.5	71.5	80	65.0	0	2	270	0.00	29.921 
03:50	71.5	71.5	71.5	80	65.0	0	1	270	0.00	29.921 
03:55	71.5	71.5	71.5	80	65.0	0	1	270	0.00	29.921 
04:00	71.3	71.3	71.3	80	64.8	0	1	270	0.00	29.915 
04:05	71.3	71.3	71.3	81	65.2	0	2	270	0.00	29.915 
04:10	71.3	71.3	71.3	81	65.2	0	1	270	0.00	29.915 
04:15	71.3	71.3	71.3	81	65.2	0	1	270	0.00	29.921 
04:20	71.1	71.1	71.1	81	65.0	0	2	270	0.00	29.921 
04:25	71.1	71.1	71.1	81	65.0	0	2	270	0.00	29.921 
04:30	71.1	71.1	71.1	82	65.3	0	1	270	0.00	29.919 
04:35	70.9	70.9	70.9	82	65.1	1	3	270	0.00	29.919 
04:40	70.9	70.9	70.9	82	65.1	1	2	270	0.00	29.919 
04:45	70.8	70.8	70.8	82	65.0	0	1	270	0.00	29.916 
04:50	70.8	70.8	70.8	83	65.4	0	1	270	0.00	29.916 
04:55	70.6	70.6	70.6	83	65.2	0	2	270	0.00	29.916 
05:00	70.6	70.6	70.6	83	65.2	0	2	270	0.00	29.911 
05:05	70.6	70.6	70.6	84	65.5	0	1	270	0.00	29.911 
05:10	70.4	70.4	70.4	84	65.3	0	1	270	0.00	29.911 
05:15	70.3	70.3	70.3	84	65.2	0	1	270	0.00	29.919 
05:20	70.3	70.3	70.3	84	65.2	0	0	---	0.00	29.919 
05:25	70.1	70.1	70.1	85	65.4	0	1	270	0.00	29.919 
05:30	69.9	69.9	69.9	85	65.2	0	0	---	0.00	29.915 
05:35	69.9	69.9	69.9	85	65.2	0	0	---	0.00	29.915 
05:40	69.8	69.8	69.8	86	65.4	0	0	---	0.00	29.915 
05:45	69.6	69.6	69.6	86	65.2	0	1	270	0.00	29.918 
05:50	69.4	69.4	69.4	86	65.0	0	0	---	0.00	29.918 
05:55	69.3	69.3	69.3	87	65.3	0	0	---	0.00	29.918 
06:00	69.1	69.1	69.1	87	65.1	0	0	---	0.00	29.921 
06:05	68.9	68.9	68.9	87	64.9	0	0	---	0.00	29.921 
06:10	68.8	68.8	68.8	88	65.1	0	0	---	0.00	29.921 
06:15	68.6	68.6	68.6	88	64.9	0	0	---	0.00	29.917 
06:20	68.4	68.4	68.4	88	64.7	0	0	---	0.00	29.917 
06:25	68.4	68.4	68.4	88	64.7	0	0	---	0.00	29.917 
06:30	68.3	68.3	68.3	89	64.9	0	0	---	0.00	29.915 
06:35	68.1	68.1	68.1	89	64.7	0	0	---	0.00	29.915 
06:40	68.1	68.1	68.1	90	65.0	0	0	---	0.00	29.915 
06:45	67.9	67.9	67.9	90	64.9	0	0	---	0.00	29.913 
06:50	67.9	67.9	67.9	90	64.9	0	0	---	0.00	29.913 
06:55	67.9	67.9	67.9	90	64.9	0	0	---	0.00	29.913 
07:00	67.9	67.9	67.9	91	65.2	0	0	---	0.00	29.914 
07:05	67.9	67.9	67.9	91	65.2	0	0	---	0.00	29.914 
07:10	68.1	68.1	68.1	91	65.4	0	0	---	0.00	29.914 
07:15	68.3	68.3	68.3	91	65.6	0	0	---	0.00	29.915 
07:20	68.4	68.4	68.4	91	65.7	0	0	---	0.00	29.915 
07:25	68.8	68.8	68.8	91	66.1	0	0	---	0.00	29.915 
07:30	69.3	69.3	69.3	91	66.6	0	0	---	0.00	29.911 
07:35	69.9	69.9	69.9	90	66.8	0	1	270	0.00	29.911 
07:40	70.6	70.6	70.6	88	66.9	0	1	270	0.00	29.911 
07:45	71.1	71.1	71.1	86	66.7	0	2	270	0.00	29.906 
07:50	71.8	71.8	71.8	85	67.0	0	1	270	0.00	29.906 
07:55	72.3	72.3	72.3	83	66.8	0	2	270	0.00	29.906 
08:00	72.8	72.8	72.8	82	67.0	0	2	270	0.00	29.913 
08:05	73.0	73.0	73.0	81	66.8	0	3	270	0.00	29.913 
08:10	73.2	73.2	73.2	80	66.6	0	2	0	0.00	29.913 
08:15	73.2	73.2	73.2	80	66.6	0	2	0	0.00	29.926 
08:20	73.3	73.3	73.3	80	66.7	0	1	0	0.00	29.926 
08:25	73.3	73.3	73.3	80	66.7	0	2	0	0.00	29.926 
08:30	73.2	73.2	73.2	80	66.6	0	2	315	0.00	29.939 
08:35	73.3	73.3	73.3	81	67.1	0	1	292	0.00	29.939 
08:40	73.3	73.3	73.3	80	66.7	0	2	292	0.00	29.939 
08:45	73.3	73.3	73.3	80	66.7	0	2	248	0.00	29.940 
08:50	73.5	73.5	73.5	80	66.9	0	2	248	0.00	29.940 
08:55	73.9	73.9	73.9	79	67.0	0	2	248	0.00	29.940 
09:00	74.4	74.4	74.4	77	66.7	0	2	248	0.00	29.941 
09:05	74.7	74.7	74.7	77	67.0	0	2	248	0.00	29.941 
09:10	75.3	75.3	76.4	76	67.2	0	1	248	0.00	29.941 
09:15	75.8	75.8	77.2	74	66.9	0	1	248	0.00	29.946 
09:20	76.1	76.1	77.7	72	66.4	0	3	248	0.00	29.946 
09:25	76.5	76.5	78.1	73	67.2	0	2	248	0.00	29.946 
09:30	76.7	76.7	78.3	73	67.4	0	1	248	0.00	29.942 
09:35	77.0	77.0	78.8	71	66.9	1	4	338	0.00	29.942 
09:40	77.6	77.6	79.5	71	67.4	0	4	270	0.00	29.942 
09:45	77.9	77.9	79.9	69	66.9	1	3	248	0.00	29.940 
09:50	78.3	78.3	80.3	67	66.4	1	3	22	0.00	29.940 
09:55	78.5	78.5	80.5	67	66.6	0	2	22	0.00	29.940 
10:00	78.5	78.5	80.5	66	66.2	1	3	270	0.00	29.929 
10:05	78.6	78.6	80.7	68	67.1	1	3	270	0.00	29.929 
10:10	79.2	79.2	81.4	66	66.8	1	3	270	0.00	29.929 
10:15	79.8	79.8	82.1	65	67.0	1	3	112	0.00	29.923 
10:20	80.1	80.1	82.5	65	67.2	1	2	112	0.00	29.923 
10:25	80.3	80.3	82.9	66	67.9	1	2	22	0.00	29.923 
10:30	80.5	80.5	83.1	65	67.6	1	3	45	0.00	29.918 
10:35	80.7	80.7	83.2	64	67.4	1	3	338	0.00	29.918 
10:40	80.1	80.1	82.6	66	67.7	1	2	315	0.00	29.918 
10:45	79.9	79.9	82.3	66	67.5	0	3	315	0.00	29.921 
10:50	79.9	79.9	82.2	65	67.1	1	3	248	0.00	29.921 
10:55	80.1	80.1	82.7	67	68.1	1	3	248	0.00	29.921 
11:00	80.5	80.5	83.1	65	67.6	1	4	90	0.00	29.920 
11:05	80.9	80.9	83.8	66	68.4	0	2	0	0.00	29.920 
11:10	81.1	81.1	84.1	66	68.6	1	5	270	0.00	29.920 
11:15	81.2	81.2	84.3	66	68.7	0	2	270	0.00	29.913 
11:20	81.6	81.6	84.7	65	68.7	2	5	90	0.00	29.913 
11:25	82.0	82.0	85.4	65	69.0	1	7	112	0.00	29.913 
11:30	81.8	81.8	85.5	67	69.7	2	12	90	0.00	29.900 
11:35	81.8	81.8	85.5	67	69.7	2	5	90	0.00	29.900 
11:40	82.0	82.0	86.0	68	70.4	2	4	90	0.00	29.900 
11:45	82.4	82.4	86.3	66	69.9	2	5	45	0.00	29.897 
11:50	82.8	82.8	87.2	67	70.7	1	4	90	0.00	29.897 
11:55	83.0	83.0	87.9	68	71.3	1	4	68	0.00	29.897 
12:00	83.4	83.4	88.6	68	71.7	1	4	112	0.00	29.899 
12:05	83.0	83.0	87.6	67	70.9	2	5	270	0.00	29.899 
12:10	83.0	83.0	88.4	70	72.2	1	4	270	0.00	29.899 
12:15	83.2	83.2	88.2	68	71.5	1	4	270	0.00	29.894 
12:20	83.4	83.4	88.9	69	72.1	1	4	292	0.00	29.894 
12:25	83.8	83.8	89.1	67	71.6	1	4	90	0.00	29.894 
12:30	84.1	84.1	90.0	68	72.4	1	4	90	0.00	29.892 
12:35	84.0	84.0	89.2	66	71.4	2	6	270	0.00	29.892 
12:40	84.1	84.1	90.4	69	72.8	1	4	292	0.00	29.892 
12:45	84.7	84.7	90.6	66	72.1	1	4	90	0.00	29.880 
12:50	84.9	84.9	91.0	66	72.2	2	5	270	0.00	29.880 
12:55	84.9	84.9	91.0	66	72.2	1	5	270	0.00	29.880 
13:00	85.3	85.3	91.5	65	72.2	1	5	292	0.00	29.876 
13:05	85.9	85.9	92.8	65	72.7	1	4	90	0.00	29.876 
13:10	86.1	86.1	92.4	63	72.0	1	4	292	0.00	29.876 
13:15	86.1	86.1	92.4	63	72.0	1	5	292	0.00	29.869 
13:20	86.3	86.3	93.6	65	73.1	3	6	90	0.00	29.869 
13:25	86.5	86.5	93.7	64	72.8	2	5	68	0.00	29.869 
13:30	86.3	86.3	93.2	64	72.7	1	4	22	0.00	29.865 
13:35	86.1	86.1	92.8	64	72.5	2	11	292	0.00	29.865 
13:40	86.3	86.3	93.6	65	73.1	1	2	112	0.00	29.865 
13:45	86.5	86.5	93.7	64	72.8	1	5	112	0.00	29.861 
13:50	86.7	86.7	93.7	63	72.6	1	4	90	0.00	29.861 
13:55	86.5	86.5	94.1	65	73.3	1	3	112	0.00	29.861 
14:00	86.5	86.5	93.7	64	72.8	2	7	90	0.00	29.853 
14:05	86.3	86.3	93.6	65	73.1	1	4	90	0.00	29.853 
14:10	85.7	85.7	93.9	69	74.3	2	7	90	0.00	29.853 
14:15	84.7	84.7	92.8	72	74.6	2	5	90	0.00	29.848 
14:20	84.9	84.9	93.6	73	75.3	1	5	292	0.00	29.848 
14:25	85.1	85.1	92.6	69	73.8	2	5	270	0.00	29.848 
14:30	85.5	85.5	93.5	69	74.1	1	4	45	0.00	29.840 
14:35	86.1	86.1	94.4	68	74.3	1	4	292	0.00	29.840 
14:40	87.0	87.0	95.7	66	74.2	1	6	270	0.00	29.840 
14:45	87.4	87.4	96.6	66	74.6	2	6	248	0.00	29.827 
14:50	87.4	87.4	95.7	64	73.7	2	7	90	0.00	29.827 
14:55	87.0	87.0	95.2	65	73.8	2	6	270	0.00	29.827 
15:00	86.5	86.5	94.5	66	73.8	2	5	270	0.00	29.831 
15:05	86.3	86.3	94.5	67	74.0	1	3	292	0.00	29.831 
15:10	86.5	86.5	94.9	67	74.2	1	3	270	0.00	29.831 
15:15	87.0	87.0	95.2	65	73.8	1	4	292	0.00	29.839 
15:20	87.2	87.2	96.1	66	74.4	1	4	292	0.00	29.839 
15:25	87.2	87.2	95.7	65	74.0	1	3	292	0.00	29.839 
15:30	87.0	87.0	95.7	66	74.2	1	3	270	0.00	29.828 
15:35	86.7	86.7	94.5	65	73.5	1	4	292	0.00	29.828 
15:40	86.7	86.7	95.0	66	73.9	1	3	248	0.00	29.828 
15:45	86.7	86.7	94.5	65	73.5	1	4	248	0.00	29.816 
15:50	86.5	86.5	94.5	66	73.8	1	4	270	0.00	29.816 
15:55	86.7	86.7	95.0	66	73.9	0	2	270	0.00	29.816 
16:00	86.5	86.5	94.1	65	73.3	1	4	292	0.00	29.819 
16:05	86.3	86.3	93.6	65	73.1	1	4	292	0.00	29.819 
16:10	85.9	85.9	92.8	65	72.7	2	4	292	0.00	29.819 
16:15	85.7	85.7	93.1	67	73.4	1	3	90	0.00	29.813 
16:20	85.5	85.5	92.3	66	72.8	1	4	90	0.00	29.813 
16:25	85.3	85.3	88.8	57	68.3	1	3	248	0.00	29.813 
16:30	85.1	85.1	87.7	54	66.6	1	3	270	0.00	29.812 
16:35	85.1	85.1	87.4	53	66.0	1	3	270	0.00	29.812 
16:40	84.9	84.9	87.3	54	66.4	0	2	270	0.00	29.812 
16:45	84.9	84.9	89.7	62	70.4	0	1	270	0.00	29.822 
16:50	84.5	84.5	89.9	65	71.4	0	1	270	0.00	29.822 
16:55	84.1	84.1	89.1	65	71.0	0	1	270	0.00	29.822 
17:00	83.6	83.6	88.5	66	71.0	0	1	270	0.00	29.828 
17:05	83.4	83.4	88.1	66	70.8	0	2	270	0.00	29.828 
17:10	82.8	82.8	86.5	64	69.3	0	2	270	0.00	29.828 
17:15	82.0	82.0	85.0	63	68.1	2	7	270	0.00	29.885 
17:20	77.6	77.6	79.5	72	67.8	5	10	248	0.24	29.885 
17:25	73.3	73.3	73.3	80	66.7	3	9	270	0.31	29.885 
17:30	71.3	71.3	71.3	85	66.5	2	5	270	0.16	29.894 
17:35	70.1	70.1	70.1	88	66.4	1	4	135	0.09	29.894 
17:40	69.6	69.6	69.6	90	66.5	2	4	112	0.01	29.894 
17:45	69.1	69.1	69.1	90	66.0	3	5	112	0.00	29.868 
17:50	68.9	68.9	68.9	91	66.2	2	5	90	0.00	29.868 
17:55	68.8	68.8	68.8	92	66.4	1	2	292	0.01	29.868 
18:00	68.9	68.9	68.9	93	66.8	1	3	248	0.00	29.891 
18:05	68.9	68.9	68.9	93	66.8	0	1	135	0.00	29.891 
18:10	68.9	68.9	68.9	94	67.1	0	0	---	0.00	29.891 
18:15	69.1	69.1	69.1	94	67.3	0	1	135	0.00	29.878 
18:20	69.4	69.4	69.4	94	67.6	0	2	135	0.00	29.878 
18:25	69.6	69.6	69.6	94	67.8	0	2	248	0.00	29.878 
18:30	69.6	69.6	69.6	94	67.8	0	1	248	0.00	29.860 
18:35	69.8	69.8	69.8	95	68.3	0	2	248	0.00	29.860 
18:40	70.4	70.4	70.4	95	68.9	0	1	248	0.00	29.860 
18:45	70.8	70.8	70.8	95	69.3	0	2	248	0.00	29.847 
18:50	71.1	71.1	71.1	95	69.6	0	2	248	0.00	29.847 
18:55	71.5	71.5	71.5	95	70.0	0	1	248	0.00	29.847 
19:00	71.8	71.8	71.8	95	70.3	0	2	248	0.00	29.838 
19:05	72.0	72.0	72.0	95	70.5	0	3	248	0.00	29.838 
19:10	71.8	71.8	71.8	94	70.0	0	1	248	0.00	29.838 
19:15	72.0	72.0	72.0	94	70.2	0	1	248	0.00	29.822 
19:20	72.0	72.0	72.0	94	70.2	0	1	248	0.00	29.822 
19:25	72.0	72.0	72.0	94	70.2	0	1	248	0.00	29.822 
19:30	72.0	72.0	72.0	93	69.9	0	2	248	0.00	29.814 
19:35	72.1	72.1	72.1	93	70.0	0	2	248	0.00	29.814 
19:40	72.3	72.3	72.3	92	69.8	0	1	248	0.00	29.814 
19:45	72.1	72.1	72.1	92	69.6	0	2	248	0.00	29.813 
19:50	72.3	72.3	72.3	91	69.5	1	3	248	0.00	29.813 
19:55	72.5	72.5	72.5	90	69.4	0	1	248	0.00	29.813 
20:00	72.5	72.5	72.5	90	69.4	0	2	248	0.00	29.807 
20:05	72.7	72.7	72.7	90	69.6	0	1	248	0.00	29.807 
20:10	72.7	72.7	72.7	90	69.6	0	1	248	0.00	29.807 
20:15	72.8	72.8	72.8	90	69.7	0	1	248	0.00	29.805 
20:20	72.8	72.8	72.8	90	69.7	0	1	248	0.00	29.805 
20:25	73.0	73.0	73.0	90	69.9	0	1	248	0.00	29.805 
20:30	72.8	72.8	72.8	90	69.7	0	0	---	0.00	29.797 
20:35	73.0	73.0	73.0	90	69.9	0	0	---	0.00	29.797 
20:40	73.0	73.0	73.0	90	69.9	0	1	248	0.00	29.797 
20:45	73.0	73.0	73.0	90	69.9	0	0	---	0.00	29.803 
20:50	73.0	73.0	73.0	90	69.9	0	1	248	0.00	29.803 
20:55	72.8	72.8	72.8	90	69.7	0	0	---	0.00	29.803 
21:00	72.8	72.8	72.8	90	69.7	0	0	---	0.00	29.807 
21:05	72.8	72.8	72.8	90	69.7	0	0	---	0.00	29.807 
21:10	72.7	72.7	72.7	90	69.6	0	0	---	0.00	29.807 
21:15	72.5	72.5	72.5	90	69.4	0	1	248	0.00	29.804 
21:20	72.5	72.5	72.5	91	69.7	0	0	---	0.00	29.804 
21:25	72.3	72.3	72.3	91	69.5	0	0	---	0.00	29.804 
21:30	72.3	72.3	72.3	91	69.5	0	0	---	0.00	29.806 
21:35	72.1	72.1	72.1	91	69.3	0	1	248	0.00	29.806 
21:40	72.1	72.1	72.1	91	69.3	0	0	---	0.00	29.806 
21:45	72.1	72.1	72.1	91	69.3	0	0	---	0.00	29.810 
21:50	72.1	72.1	72.1	91	69.3	0	1	248	0.00	29.810 
21:55	72.1	72.1	72.1	91	69.3	0	2	248	0.00	29.810 
22:00	72.1	72.1	72.1	91	69.3	0	1	248	0.00	29.814 
22:05	72.1	72.1	72.1	90	69.0	0	2	248	0.00	29.814 
22:10	72.1	72.1	72.1	90	69.0	0	1	248	0.00	29.814 
22:15	72.3	72.3	72.3	90	69.2	0	1	248	0.00	29.814 
22:20	72.5	72.5	72.5	89	69.1	1	3	248	0.00	29.814 
22:25	72.7	72.7	72.7	88	68.9	0	3	315	0.00	29.814 
22:30	72.8	72.8	72.8	88	69.0	1	3	315	0.00	29.816 
22:35	72.8	72.8	72.8	88	69.0	0	2	270	0.00	29.816 
22:40	73.0	73.0	73.0	88	69.2	1	3	270	0.00	29.816 
22:45	73.2	73.2	73.2	88	69.4	1	3	270	0.00	29.815 
22:50	73.5	73.5	73.5	87	69.4	1	4	292	0.00	29.815 
22:55	73.5	73.5	73.5	87	69.4	0	3	270	0.00	29.815 
23:00	73.5	73.5	73.5	87	69.4	1	4	248	0.00	29.816 
23:05	73.5	73.5	73.5	87	69.4	1	6	292	0.00	29.816 
23:10	73.3	73.3	73.3	87	69.2	1	4	292	0.00	29.816 
23:15	73.3	73.3	73.3	87	69.2	1	5	270	0.00	29.813 
23:20	73.3	73.3	73.3	88	69.5	0	3	270	0.00	29.813 
23:25	73.3	73.3	73.3	88	69.5	0	1	248	0.00	29.813 
23:30	73.2	73.2	73.2	88	69.4	0	2	248	0.00	29.813 
23:35	73.2	73.2	73.2	88	69.4	0	3	248	0.00	29.813 
23:40	73.0	73.0	73.0	89	69.6	0	1	248	0.00	29.813 
23:45	73.0	73.0	73.0	89	69.6	0	1	248	0.00	29.807 
23:50	73.0	73.0	73.0	89	69.6	1	4	270	0.00	29.807 
23:55	72.8	72.8	72.8	89	69.4	0	2	270	0.00	29.807 

CoCoRaHS
IN-AL-39
A2 Web Hosting
Creative Commons License
GoDaddy
search engine by freefind advanced

loaded 2018-11-13 17:05:15 • last modified 2010-11-18 10:43:29
Privacy PolicyDisclaimer
• wx.awcolley.com is powered by PmWiki v.2002016 •
• all content (unless otherwise noted) © 2018 A W Colley